createdAt,value
2017-09-21T00:00:07.730Z,36.80
2017-09-21T00:02:35.916Z,37.70
2017-09-21T00:05:03.339Z,38.90
2017-09-21T00:07:30.760Z,37.97
2017-09-21T00:09:58.182Z,36.53
2017-09-21T00:12:25.601Z,36.73
2017-09-21T00:14:53.018Z,38.33
2017-09-21T00:17:20.431Z,37.40
2017-09-21T00:19:48.627Z,38.70
2017-09-21T00:22:16.103Z,38.30
2017-09-21T00:24:43.650Z,39.33
2017-09-21T00:27:11.062Z,38.10
2017-09-21T00:29:38.576Z,38.63
2017-09-21T00:32:05.972Z,38.90
2017-09-21T00:34:33.386Z,40.43
2017-09-21T00:37:00.811Z,40.67
2017-09-21T00:39:28.263Z,40.30
2017-09-21T00:41:56.459Z,39.10
2017-09-21T00:44:23.923Z,40.70
2017-09-21T00:46:51.351Z,36.90
2017-09-21T00:49:19.540Z,39.20
2017-09-21T00:51:46.956Z,37.30
2017-09-21T00:54:14.373Z,38.60
2017-09-21T00:56:41.795Z,37.10
2017-09-21T00:59:09.279Z,37.80
2017-09-21T01:01:36.695Z,39.23
2017-09-21T01:04:04.938Z,39.90
2017-09-21T01:06:32.323Z,37.63
2017-09-21T01:09:00.516Z,37.17
2017-09-21T01:11:29.294Z,39.57
2017-09-21T01:13:57.546Z,39.70
2017-09-21T01:16:25.734Z,38.90
2017-09-21T01:18:53.916Z,37.80
2017-09-21T01:21:22.096Z,39.50
2017-09-21T01:23:49.515Z,37.47
2017-09-21T01:26:18.436Z,37.53
2017-09-21T01:28:46.647Z,39.90
2017-09-21T01:31:14.064Z,37.00
2017-09-21T01:33:42.236Z,37.57
2017-09-21T01:36:10.423Z,37.97
2017-09-21T01:38:37.838Z,39.83
2017-09-21T01:41:05.256Z,39.27
2017-09-21T01:43:32.676Z,40.10
2017-09-21T01:46:00.891Z,39.70
2017-09-21T01:48:34.172Z,39.60
2017-09-21T01:51:01.588Z,40.53
2017-09-21T01:53:29.032Z,40.50
2017-09-21T01:55:56.452Z,39.40
2017-09-21T01:58:23.864Z,39.87
2017-09-21T02:00:52.076Z,41.10
2017-09-21T02:03:19.506Z,40.13
2017-09-21T02:05:47.687Z,42.33
2017-09-21T02:08:15.106Z,41.27
2017-09-21T02:10:42.548Z,40.03
2017-09-21T02:13:09.968Z,40.07
2017-09-21T02:15:37.385Z,40.03
2017-09-21T02:18:05.628Z,41.27
2017-09-21T02:20:33.063Z,39.80
2017-09-21T02:23:00.538Z,39.60
2017-09-21T02:25:27.977Z,40.00
2017-09-21T02:27:55.382Z,41.80
2017-09-21T02:30:23.647Z,41.43
2017-09-21T02:32:51.174Z,40.07
2017-09-21T02:35:18.591Z,40.37
2017-09-21T02:37:46.798Z,41.00
2017-09-21T02:40:14.211Z,40.67
2017-09-21T02:42:42.394Z,42.60
2017-09-21T02:45:10.580Z,40.07
2017-09-21T02:47:38.054Z,41.33
2017-09-21T02:50:05.470Z,41.50
2017-09-21T02:52:32.919Z,39.87
2017-09-21T02:55:01.144Z,40.30
2017-09-21T02:57:28.600Z,42.37
2017-09-21T02:59:56.030Z,42.13
2017-09-21T03:02:23.448Z,41.43
2017-09-21T03:04:50.974Z,39.63
2017-09-21T03:07:18.419Z,40.40
2017-09-21T03:09:45.833Z,42.00
2017-09-21T03:12:13.740Z,42.70
2017-09-21T03:14:41.155Z,41.60
2017-09-21T03:17:08.574Z,42.90
2017-09-21T03:19:36.019Z,41.60
2017-09-21T03:22:03.414Z,42.00
2017-09-21T03:24:30.834Z,42.60
2017-09-21T03:26:58.263Z,42.87
2017-09-21T03:29:25.668Z,43.07
2017-09-21T03:31:53.078Z,41.83
2017-09-21T03:34:20.491Z,43.17
2017-09-21T03:36:47.912Z,44.50
2017-09-21T03:39:15.336Z,42.37
2017-09-21T03:41:43.542Z,44.43
2017-09-21T03:44:10.961Z,43.33
2017-09-21T03:46:39.152Z,42.10
2017-09-21T03:49:06.649Z,42.57
2017-09-21T03:51:34.230Z,41.90
2017-09-21T03:54:02.467Z,40.37
2017-09-21T03:56:29.883Z,42.10
2017-09-21T03:58:57.369Z,42.30
2017-09-21T04:01:24.770Z,41.87
2017-09-21T04:03:52.191Z,43.40
2017-09-21T04:06:19.610Z,42.80
2017-09-21T04:08:47.794Z,42.40
2017-09-21T04:11:15.555Z,42.07
2017-09-21T04:13:42.975Z,42.80
2017-09-21T04:16:10.556Z,43.93
2017-09-21T04:18:39.526Z,42.83
2017-09-21T04:21:06.927Z,43.03
2017-09-21T04:23:34.345Z,41.57
2017-09-21T04:26:02.530Z,43.10
2017-09-21T04:28:30.887Z,42.33
2017-09-21T04:30:58.399Z,41.20
2017-09-21T04:33:25.801Z,40.27
2017-09-21T04:35:53.308Z,41.20
2017-09-21T04:38:20.765Z,40.53
2017-09-21T04:40:48.199Z,41.10
2017-09-21T04:43:15.626Z,40.30
2017-09-21T04:45:44.546Z,40.47
2017-09-21T04:48:11.971Z,39.30
2017-09-21T04:50:41.250Z,40.20
2017-09-21T04:53:08.672Z,39.97
2017-09-21T04:55:36.087Z,39.90
2017-09-21T04:58:03.934Z,41.37
2017-09-21T05:00:31.456Z,40.50
2017-09-21T05:02:58.875Z,39.77
2017-09-21T05:05:27.064Z,39.47
2017-09-21T05:07:55.240Z,40.33
2017-09-21T05:10:22.668Z,40.60
2017-09-21T05:12:50.101Z,40.10
2017-09-21T05:15:17.913Z,39.47
2017-09-21T05:17:45.332Z,39.40
2017-09-21T05:20:13.571Z,41.10
2017-09-21T05:22:40.983Z,40.50
2017-09-21T05:25:09.194Z,40.17
2017-09-21T05:27:36.611Z,39.87
2017-09-21T05:30:04.800Z,40.90
2017-09-21T05:32:32.979Z,39.80
2017-09-21T05:35:00.404Z,39.80
2017-09-21T05:37:27.821Z,38.00
2017-09-21T05:39:55.243Z,39.47
2017-09-21T05:42:22.659Z,40.87
2017-09-21T05:44:50.079Z,39.90
2017-09-21T05:47:17.535Z,38.93
2017-09-21T05:49:44.954Z,38.10
2017-09-21T05:52:13.692Z,38.10
2017-09-21T05:54:41.118Z,38.40
2017-09-21T05:57:08.522Z,38.03
2017-09-21T05:59:35.952Z,39.13
2017-09-21T06:02:03.363Z,39.03
2017-09-21T06:04:31.572Z,38.23
2017-09-21T06:06:59.291Z,42.07
2017-09-21T06:09:27.514Z,57.63
2017-09-21T06:11:55.924Z,43.37
2017-09-21T06:14:23.572Z,39.00
2017-09-21T06:16:50.982Z,39.57
2017-09-21T06:19:18.427Z,38.80
2017-09-21T06:21:46.606Z,37.20
2017-09-21T06:24:14.052Z,38.33
2017-09-21T06:26:42.238Z,38.20
2017-09-21T06:29:09.650Z,38.07
2017-09-21T06:31:37.195Z,38.70
2017-09-21T06:34:04.605Z,37.87
2017-09-21T06:36:33.606Z,38.27
2017-09-21T06:39:01.040Z,37.40
2017-09-21T06:41:29.227Z,39.30
2017-09-21T06:43:58.258Z,36.80
2017-09-21T06:46:25.706Z,37.70
2017-09-21T06:48:54.051Z,36.90
2017-09-21T06:51:22.263Z,37.10
2017-09-21T06:53:50.230Z,37.10
2017-09-21T06:56:17.653Z,35.77
2017-09-21T06:58:45.835Z,35.30
2017-09-21T07:01:13.288Z,115.00
2017-09-21T07:03:40.722Z,44.03
2017-09-21T07:06:08.224Z,35.60
2017-09-21T07:08:35.659Z,34.73
2017-09-21T07:11:03.964Z,34.27
2017-09-21T07:13:31.357Z,34.43
2017-09-21T07:15:59.594Z,33.03
2017-09-21T07:18:27.015Z,34.60
2017-09-21T07:20:55.200Z,33.93
2017-09-21T07:23:22.627Z,33.10
2017-09-21T07:25:50.045Z,34.07
2017-09-21T07:28:17.488Z,32.33
2017-09-21T07:30:44.933Z,31.77
2017-09-21T07:33:13.094Z,33.77
2017-09-21T07:35:40.519Z,40.50
2017-09-21T07:38:07.952Z,32.40
2017-09-21T07:40:35.363Z,32.43
2017-09-21T07:43:02.786Z,33.13
2017-09-21T07:45:30.979Z,33.70
2017-09-21T07:47:59.158Z,33.80
2017-09-21T07:50:27.598Z,32.63
2017-09-21T07:52:55.129Z,31.90
2017-09-21T07:55:22.527Z,32.43
2017-09-21T07:57:49.951Z,31.27
2017-09-21T08:00:17.411Z,30.57
2017-09-21T08:02:44.983Z,30.07
2017-09-21T08:05:13.257Z,29.53
2017-09-21T08:07:40.736Z,28.47
2017-09-21T08:10:08.147Z,29.67
2017-09-21T08:12:35.587Z,29.20
2017-09-21T08:15:03.463Z,28.70
2017-09-21T08:17:30.881Z,27.63
2017-09-21T08:19:59.095Z,29.00
2017-09-21T08:22:26.630Z,29.43
2017-09-21T08:24:54.819Z,29.80
2017-09-21T08:27:22.386Z,29.13
2017-09-21T08:29:51.371Z,28.73
2017-09-21T08:32:18.959Z,29.23
2017-09-21T08:34:46.590Z,35.73
2017-09-21T08:37:14.000Z,31.00
2017-09-21T08:39:41.507Z,34.40
2017-09-21T08:42:08.919Z,28.93
2017-09-21T08:44:36.418Z,28.73
2017-09-21T08:47:03.834Z,29.53
2017-09-21T08:49:32.055Z,28.50
2017-09-21T08:51:59.467Z,27.40
2017-09-21T08:54:27.786Z,77.37
2017-09-21T08:56:55.287Z,30.87
2017-09-21T08:59:22.707Z,30.17
2017-09-21T09:01:50.119Z,32.10
2017-09-21T09:04:18.327Z,29.93
2017-09-21T09:06:45.751Z,28.27
2017-09-21T09:09:13.954Z,28.77
2017-09-21T09:14:12.664Z,27.80
2017-09-21T09:16:40.083Z,26.73
2017-09-21T09:19:08.275Z,27.77
2017-09-21T09:21:35.706Z,26.30
2017-09-21T09:24:03.906Z,24.97
2017-09-21T09:26:31.326Z,25.60
2017-09-21T09:28:58.746Z,24.53
2017-09-21T09:31:26.167Z,24.43
2017-09-21T09:33:53.617Z,24.43
2017-09-21T09:36:21.831Z,24.10
2017-09-21T09:38:49.247Z,25.00
2017-09-21T09:41:17.439Z,23.40
2017-09-21T09:43:44.902Z,23.80
2017-09-21T09:46:12.463Z,23.83
2017-09-21T09:48:39.889Z,25.87
2017-09-21T09:51:08.065Z,23.20
2017-09-21T09:53:36.248Z,23.40
2017-09-21T09:56:03.674Z,21.60
2017-09-21T09:58:31.083Z,21.43
2017-09-21T10:00:58.518Z,21.83
2017-09-21T10:03:25.923Z,21.80
2017-09-21T10:05:53.347Z,20.43
2017-09-21T10:08:20.906Z,21.53
2017-09-21T10:10:48.315Z,20.07
2017-09-21T10:13:16.764Z,19.70
2017-09-21T10:15:44.374Z,19.40
2017-09-21T10:18:11.796Z,19.60
2017-09-21T10:20:40.128Z,19.07
2017-09-21T10:23:07.578Z,19.70
2017-09-21T10:25:35.053Z,19.47
2017-09-21T10:28:02.506Z,18.33
2017-09-21T10:30:29.963Z,18.87
2017-09-21T10:32:57.416Z,18.10
2017-09-21T10:35:24.830Z,16.60
2017-09-21T10:37:52.803Z,16.27
2017-09-21T10:40:20.997Z,16.37
2017-09-21T10:42:48.467Z,16.83
2017-09-21T10:45:15.890Z,17.60
2017-09-21T10:47:44.093Z,17.80
2017-09-21T10:50:11.512Z,17.43
2017-09-21T10:52:39.690Z,16.37
2017-09-21T10:55:07.875Z,15.43
2017-09-21T10:57:36.059Z,14.40
2017-09-21T11:00:03.488Z,13.30
2017-09-21T11:02:31.710Z,12.63
2017-09-21T11:04:59.158Z,13.33
2017-09-21T11:07:26.559Z,12.97
2017-09-21T11:09:54.798Z,13.40
2017-09-21T11:12:22.202Z,14.53
2017-09-21T11:14:50.442Z,15.07
2017-09-21T11:17:17.839Z,14.07
2017-09-21T11:19:46.018Z,13.53
2017-09-21T11:22:14.224Z,14.10
2017-09-21T11:24:41.659Z,13.97
2017-09-21T11:27:09.070Z,13.83
2017-09-21T11:29:36.499Z,12.87
2017-09-21T11:32:03.951Z,12.90
2017-09-21T11:34:31.409Z,9.50
2017-09-21T11:36:58.864Z,7.60
2017-09-21T11:39:26.316Z,7.27
2017-09-21T11:41:53.727Z,7.53
2017-09-21T11:44:21.914Z,7.47
2017-09-21T11:46:50.091Z,7.63
2017-09-21T11:49:18.279Z,7.83
2017-09-21T11:51:46.898Z,8.40
2017-09-21T11:54:14.291Z,7.40
2017-09-21T11:56:42.516Z,6.90
2017-09-21T11:59:09.915Z,7.90
2017-09-21T12:01:38.144Z,9.07
2017-09-21T12:04:06.312Z,8.30
2017-09-21T12:06:34.011Z,10.33
2017-09-21T12:09:01.447Z,10.57
2017-09-21T12:11:28.886Z,10.00
2017-09-21T12:13:56.295Z,10.03
2017-09-21T12:16:24.483Z,10.10
2017-09-21T12:18:52.666Z,9.70
2017-09-21T12:21:20.094Z,8.87
2017-09-21T12:23:49.488Z,8.40
2017-09-21T12:26:17.832Z,8.70
2017-09-21T12:28:45.292Z,7.80
2017-09-21T12:31:12.712Z,8.53
2017-09-21T12:33:40.900Z,11.00
2017-09-21T12:36:08.306Z,8.57
2017-09-21T12:38:35.729Z,9.20
2017-09-21T12:41:03.135Z,9.13
2017-09-21T12:43:31.357Z,8.80
2017-09-21T12:45:58.770Z,8.20
2017-09-21T12:48:26.952Z,9.40
2017-09-21T12:50:55.200Z,9.50
2017-09-21T12:53:22.611Z,8.10
2017-09-21T12:55:52.971Z,8.00
2017-09-21T12:58:21.417Z,7.47
2017-09-21T13:00:48.851Z,8.70
2017-09-21T13:03:17.003Z,9.83
2017-09-21T13:05:45.197Z,9.67
2017-09-21T13:08:13.088Z,9.57
2017-09-21T13:10:40.482Z,9.73
2017-09-21T13:13:07.911Z,10.20
2017-09-21T13:15:35.595Z,11.00
2017-09-21T13:18:03.023Z,10.83
2017-09-21T13:20:33.025Z,11.50
2017-09-21T13:23:00.590Z,11.20
2017-09-21T13:25:28.004Z,10.80
2017-09-21T13:27:57.214Z,9.87
2017-09-21T13:30:27.919Z,10.17
2017-09-21T13:32:55.315Z,9.53
2017-09-21T13:35:22.730Z,10.90
2017-09-21T13:37:52.441Z,10.33
2017-09-21T13:40:21.551Z,10.40
2017-09-21T13:42:50.589Z,11.30
2017-09-21T13:45:17.991Z,11.60
2017-09-21T13:47:45.435Z,12.93
2017-09-21T13:50:12.982Z,12.23
2017-09-21T13:52:40.487Z,12.70
2017-09-21T13:55:08.281Z,12.50
2017-09-21T13:57:35.679Z,12.03
2017-09-21T14:00:03.095Z,12.90
2017-09-21T14:02:30.517Z,13.40
2017-09-21T14:04:58.716Z,11.40
2017-09-21T14:07:26.165Z,11.63
2017-09-21T14:09:54.335Z,12.50
2017-09-21T14:12:21.751Z,11.20
2017-09-21T14:14:49.927Z,10.63
2017-09-21T14:17:17.547Z,10.70
2017-09-21T14:19:44.959Z,10.47
2017-09-21T14:22:13.135Z,9.77
2017-09-21T14:24:41.332Z,9.90
2017-09-21T14:27:08.795Z,10.30
2017-09-21T14:29:36.265Z,11.27
2017-09-21T14:32:03.691Z,10.20
2017-09-21T14:34:31.861Z,10.27
2017-09-21T14:36:59.286Z,9.20
2017-09-21T14:39:26.724Z,10.77
2017-09-21T14:41:54.131Z,11.40
2017-09-21T14:44:21.539Z,8.40
2017-09-21T14:46:48.954Z,8.50
2017-09-21T14:49:16.362Z,8.20
2017-09-21T14:51:43.798Z,8.43
2017-09-21T14:54:11.205Z,8.53
2017-09-21T14:56:39.414Z,9.57
2017-09-21T14:59:06.876Z,8.97
2017-09-21T15:01:34.330Z,9.03
2017-09-21T15:04:01.778Z,8.90
2017-09-21T15:06:29.255Z,10.83
2017-09-21T15:08:56.658Z,10.93
2017-09-21T15:11:24.114Z,11.73
2017-09-21T15:13:52.295Z,12.60
2017-09-21T15:16:19.723Z,12.40
2017-09-21T15:18:48.793Z,9.37
2017-09-21T15:21:16.216Z,11.13
2017-09-21T15:23:43.683Z,10.90
2017-09-21T15:26:11.147Z,10.60
2017-09-21T15:28:38.606Z,9.57
2017-09-21T15:31:06.021Z,10.27
2017-09-21T15:33:34.227Z,10.37
2017-09-21T15:36:01.663Z,9.80
2017-09-21T15:38:29.676Z,10.70
2017-09-21T15:40:57.087Z,11.40
2017-09-21T15:43:24.610Z,9.60
2017-09-21T15:45:52.837Z,11.30
2017-09-21T15:48:20.236Z,10.60
2017-09-21T15:50:47.650Z,8.80
2017-09-21T15:53:15.100Z,10.10
2017-09-21T15:55:42.559Z,9.80
2017-09-21T15:58:10.016Z,9.43
2017-09-21T16:00:37.426Z,10.17
2017-09-21T16:03:05.974Z,9.53
2017-09-21T16:05:33.411Z,13.03
2017-09-21T16:08:00.873Z,11.30
2017-09-21T16:10:29.034Z,11.20
2017-09-21T16:12:56.497Z,10.30
2017-09-21T16:15:23.906Z,10.20
2017-09-21T16:17:52.131Z,11.57
2017-09-21T16:20:19.543Z,11.87
2017-09-21T16:22:47.727Z,11.53
2017-09-21T16:25:15.142Z,11.20
2017-09-21T16:27:42.568Z,11.30
2017-09-21T16:30:09.978Z,10.30
2017-09-21T16:32:38.159Z,8.67
2017-09-21T16:35:06.363Z,10.27
2017-09-21T16:37:33.778Z,11.23
2017-09-21T16:40:01.958Z,9.93
2017-09-21T16:42:30.278Z,10.90
2017-09-21T16:44:57.670Z,10.80
2017-09-21T16:47:25.083Z,11.90
2017-09-21T16:49:52.498Z,11.03
2017-09-21T16:52:20.679Z,10.70
2017-09-21T16:54:48.877Z,10.43
2017-09-21T16:57:16.290Z,11.20
2017-09-21T16:59:43.712Z,11.03
2017-09-21T17:02:11.123Z,12.17
2017-09-21T17:04:39.316Z,12.40
2017-09-21T17:07:06.783Z,12.27
2017-09-21T17:09:34.230Z,11.70
2017-09-21T17:12:01.697Z,13.40
2017-09-21T17:14:29.118Z,12.20
2017-09-21T17:16:57.298Z,13.87
2017-09-21T17:19:25.495Z,15.40
2017-09-21T17:21:52.971Z,14.50
2017-09-21T17:24:20.385Z,13.30
2017-09-21T17:26:48.579Z,14.80
2017-09-21T17:29:15.992Z,15.17
2017-09-21T17:31:43.407Z,13.47
2017-09-21T17:34:10.858Z,14.47
2017-09-21T17:36:38.253Z,15.83
2017-09-21T17:39:05.773Z,18.80
2017-09-21T17:41:33.177Z,15.83
2017-09-21T17:44:00.592Z,15.50
2017-09-21T17:46:28.347Z,15.67
2017-09-21T17:48:55.759Z,14.00
2017-09-21T17:51:23.951Z,12.47
2017-09-21T17:53:51.946Z,14.67
2017-09-21T17:56:19.371Z,15.83
2017-09-21T17:58:46.792Z,15.50
2017-09-21T18:01:14.211Z,15.27
2017-09-21T18:03:41.632Z,15.77
2017-09-21T18:06:09.835Z,15.70
2017-09-21T18:08:37.255Z,18.93
2017-09-21T18:11:05.469Z,18.20
2017-09-21T18:13:32.882Z,18.30
2017-09-21T18:16:01.070Z,19.77
2017-09-21T18:18:29.273Z,20.27
2017-09-21T18:20:56.694Z,18.87
2017-09-21T18:23:24.875Z,17.60
2017-09-21T18:25:53.479Z,18.20
2017-09-21T18:28:21.697Z,18.00
2017-09-21T18:30:49.811Z,18.43
2017-09-21T18:33:17.979Z,16.93
2017-09-21T18:35:46.158Z,17.43
2017-09-21T18:38:13.579Z,17.83
2017-09-21T18:40:40.995Z,17.63
2017-09-21T18:43:08.410Z,17.07
2017-09-21T18:45:36.586Z,17.47
2017-09-21T18:48:04.775Z,16.90
2017-09-21T18:50:32.193Z,18.50
2017-09-21T18:52:59.614Z,18.13
2017-09-21T18:55:27.038Z,20.27
2017-09-21T18:57:54.474Z,20.43
2017-09-21T19:00:22.652Z,22.10
2017-09-21T19:05:15.535Z,22.37
2017-09-21T19:07:42.947Z,20.27
2017-09-21T19:10:10.364Z,20.20
2017-09-21T19:12:38.326Z,19.00
2017-09-21T19:15:05.739Z,19.67
2017-09-21T19:17:33.168Z,19.50
2017-09-21T19:20:00.590Z,19.53
2017-09-21T19:22:28.055Z,18.50
2017-09-21T19:24:55.473Z,20.63
2017-09-21T19:27:23.657Z,21.70
2017-09-21T19:29:51.843Z,23.30
2017-09-21T19:32:19.320Z,21.37
2017-09-21T19:34:46.712Z,22.53
2017-09-21T19:37:14.136Z,21.37
2017-09-21T19:39:41.543Z,20.20
2017-09-21T19:42:09.723Z,21.53
2017-09-21T19:44:37.920Z,20.67
2017-09-21T19:47:05.325Z,20.47
2017-09-21T19:49:32.744Z,20.40
2017-09-21T19:52:00.159Z,20.00
2017-09-21T19:54:28.374Z,18.80
2017-09-21T19:56:55.795Z,20.90
2017-09-21T19:59:23.998Z,21.27
2017-09-21T20:01:51.421Z,20.97
2017-09-21T20:04:19.611Z,22.30
2017-09-21T20:06:47.083Z,25.37
2017-09-21T20:09:14.514Z,23.43
2017-09-21T20:11:42.726Z,24.03
2017-09-21T20:14:10.143Z,25.27
2017-09-21T20:16:38.358Z,25.10
2017-09-21T20:19:05.778Z,24.63
2017-09-21T20:21:33.958Z,24.93
2017-09-21T20:24:01.383Z,22.83
2017-09-21T20:26:28.841Z,24.60
2017-09-21T20:28:56.273Z,25.73
2017-09-21T20:31:23.707Z,23.30
2017-09-21T20:33:51.135Z,22.40
2017-09-21T20:36:18.558Z,20.87
2017-09-21T20:38:47.493Z,20.60
2017-09-21T20:41:14.982Z,20.43
2017-09-21T20:43:42.419Z,20.60
2017-09-21T20:46:09.845Z,20.70
2017-09-21T20:48:40.047Z,20.70
2017-09-21T20:51:08.231Z,21.40
2017-09-21T20:53:36.420Z,20.17
2017-09-21T20:56:04.602Z,20.90
2017-09-21T20:58:32.027Z,21.13
2017-09-21T21:00:59.464Z,22.70
2017-09-21T21:03:26.983Z,21.90
2017-09-21T21:05:54.404Z,21.67
2017-09-21T21:08:22.854Z,23.03
2017-09-21T21:10:50.259Z,23.40
2017-09-21T21:13:18.422Z,22.20
2017-09-21T21:15:46.643Z,22.70
2017-09-21T21:18:14.103Z,22.57
2017-09-21T21:20:41.519Z,23.83
2017-09-21T21:23:08.934Z,23.33
2017-09-21T21:25:36.351Z,24.37
2017-09-21T21:28:03.777Z,23.83
2017-09-21T21:30:31.987Z,24.73
2017-09-21T21:32:59.405Z,26.23
2017-09-21T21:35:33.957Z,25.30
2017-09-21T21:38:01.426Z,27.60
2017-09-21T21:40:28.861Z,26.47
2017-09-21T21:42:56.324Z,26.07
2017-09-21T21:45:23.747Z,26.13
2017-09-21T21:47:51.937Z,25.50
2017-09-21T21:50:19.423Z,25.13
2017-09-21T21:52:46.855Z,25.73
2017-09-21T21:55:14.283Z,27.63
2017-09-21T21:57:42.501Z,27.43
2017-09-21T22:00:09.914Z,27.47
2017-09-21T22:02:38.139Z,28.00
2017-09-21T22:05:05.592Z,26.80
2017-09-21T22:07:33.011Z,27.80
2017-09-21T22:10:01.199Z,30.20
2017-09-21T22:12:28.630Z,29.87
2017-09-21T22:14:56.043Z,28.40
2017-09-21T22:17:23.471Z,29.10
2017-09-21T22:19:50.891Z,30.30
2017-09-21T22:22:18.303Z,31.57
2017-09-21T22:24:45.733Z,30.20
2017-09-21T22:27:13.152Z,29.47
2017-09-21T22:29:41.341Z,30.70
2017-09-21T22:32:09.539Z,26.93
2017-09-21T22:34:37.019Z,26.20
2017-09-21T22:37:04.915Z,28.70
2017-09-21T22:39:33.839Z,26.63
2017-09-21T22:42:02.026Z,23.87
2017-09-21T22:44:29.505Z,24.20
2017-09-21T22:46:56.998Z,26.37
2017-09-21T22:49:24.427Z,27.40
2017-09-21T22:51:51.845Z,27.30
2017-09-21T22:54:20.043Z,26.67
2017-09-21T22:56:47.454Z,27.73
2017-09-21T22:59:15.675Z,29.07
2017-09-21T23:01:43.083Z,29.43
2017-09-21T23:04:10.590Z,29.10
2017-09-21T23:06:38.015Z,29.80
2017-09-21T23:09:06.322Z,28.50
2017-09-21T23:11:33.723Z,27.37
2017-09-21T23:14:01.919Z,28.47
2017-09-21T23:16:30.099Z,27.60
2017-09-21T23:18:57.580Z,27.83
2017-09-21T23:21:25.038Z,28.10
2017-09-21T23:23:52.492Z,28.43
2017-09-21T23:26:19.963Z,28.10
2017-09-21T23:28:47.380Z,28.50
2017-09-21T23:31:14.798Z,28.23
2017-09-21T23:33:42.319Z,28.57
2017-09-21T23:36:09.747Z,31.20
2017-09-21T23:38:37.950Z,29.10
2017-09-21T23:41:05.371Z,28.80
2017-09-21T23:43:33.579Z,28.43
2017-09-21T23:46:01.355Z,28.97
2017-09-21T23:48:28.792Z,28.37
2017-09-21T23:50:56.223Z,26.50
2017-09-21T23:53:24.416Z,27.50
2017-09-21T23:55:51.838Z,28.53
2017-09-21T23:58:20.022Z,28.27
